Time;durP1;ratioP1;P1;durP2;ratioP2;P2;SDS_P1;SDS_P2;PMS_P1;PMS_P2;Temp;Humidity;BMP_temperature;BMP_pressure;BME280_temperature;BME280_humidity;BME280_pressure;Samples;Min_cycle;Max_cycle;Signal;HPM_P1;HPM_P2
2021/09/30 00:02:17;;;;;;;2.03;1.40;;;12.50;99.90;;;;;;4992621;28;20438;-51
2021/09/30 00:04:43;;;;;;;4.97;1.47;;;12.40;99.90;;;;;;4992776;28;20463;-51
2021/09/30 00:07:10;;;;;;;8.20;1.97;;;12.50;99.90;;;;;;4992721;28;20415;-51
2021/09/30 00:09:42;;;;;;;2.43;1.80;;;12.60;99.90;;;;;;4992312;28;20455;-51
2021/09/30 00:12:12;;;;;;;2.43;1.87;;;12.70;99.90;;;;;;4992672;28;20476;-51
2021/09/30 00:14:46;;;;;;;4.00;1.67;;;12.40;99.90;;;;;;4992927;28;20460;-51
2021/09/30 00:33:48;;;;;;;2.47;1.70;;;12.20;99.90;;;;;;4992631;28;20534;-52
2021/09/30 00:39:38;;;;;;;1.50;1.37;;;12.10;99.90;;;;;;4992864;28;21059;-52
2021/09/30 00:41:55;;;;;;;2.30;1.63;;;12.20;99.90;;;;;;4994012;28;20534;-52
2021/09/30 00:47:14;;;;;;;2.47;2.23;;;12.10;99.90;;;;;;4992537;28;20444;-52
2021/09/30 00:49:52;;;;;;;2.53;1.80;;;12.30;99.90;;;;;;4991775;28;20480;-51
2021/09/30 00:52:27;;;;;;;3.43;1.80;;;12.00;99.90;;;;;;4990891;28;20449;-50
2021/09/30 01:52:21;;;;;;;2.47;1.70;;;11.70;99.90;;;;;;4993821;28;20531;-52
2021/09/30 02:20:17;;;;;;;2.80;1.80;;;11.30;99.90;;;;;;4993228;28;20488;-51
2021/09/30 02:28:37;;;;;;;7.70;1.60;;;11.50;99.90;;;;;;4958256;28;20469;-52
2021/09/30 02:31:32;;;;;;;2.33;1.63;;;11.40;99.90;;;;;;4993002;28;20455;-52
2021/09/30 02:39:58;;;;;;;5.10;2.10;;;11.40;99.90;;;;;;4992620;28;20482;-51
2021/09/30 02:59:33;;;;;;;3.30;1.93;;;11.30;99.90;;;;;;4991983;28;20492;-52
2021/09/30 03:02:02;;;;;;;4.10;1.80;;;11.30;99.90;;;;;;4992523;28;20485;-51
2021/09/30 03:04:31;;;;;;;5.33;2.00;;;11.10;99.90;;;;;;4992481;28;20552;-52
2021/09/30 03:07:01;;;;;;;3.13;1.60;;;11.30;99.90;;;;;;4992356;28;20961;-52
2021/09/30 03:09:36;;;;;;;3.00;2.20;;;11.30;99.90;;;;;;4991923;28;20482;-51
2021/09/30 03:12:05;;;;;;;5.60;1.93;;;11.30;99.90;;;;;;4992431;28;20453;-51
2021/09/30 03:14:38;;;;;;;3.47;2.27;;;11.50;99.90;;;;;;4992318;28;20482;-52
2021/09/30 03:17:05;;;;;;;5.10;1.90;;;11.20;99.90;;;;;;4992338;28;20498;-52
2021/09/30 03:19:49;;;;;;;3.00;2.00;;;11.30;99.90;;;;;;4991012;28;20486;-51
2021/09/30 03:22:19;;;;;;;2.43;1.70;;;11.30;99.90;;;;;;4992212;28;20446;-51
2021/09/30 03:24:47;;;;;;;4.00;2.10;;;11.30;99.90;;;;;;4993278;28;20454;-50
2021/09/30 03:27:14;;;;;;;4.10;1.60;;;11.30;99.90;;;;;;4993304;28;20437;-51
2021/09/30 03:29:41;;;;;;;2.37;2.17;;;11.30;99.90;;;;;;4991368;28;20476;-51
2021/09/30 03:32:09;;;;;;;6.23;2.50;;;11.10;99.90;;;;;;4991930;28;21002;-51
2021/09/30 03:34:55;;;;;;;5.43;1.73;;;11.20;99.90;;;;;;4993397;28;20512;-51
2021/09/30 03:37:25;;;;;;;3.33;1.90;;;11.50;99.90;;;;;;4991995;28;20798;-52
2021/09/30 03:39:52;;;;;;;2.50;1.90;;;11.30;99.90;;;;;;4991178;28;20484;-52
2021/09/30 03:42:19;;;;;;;5.10;2.40;;;11.10;99.90;;;;;;4991784;28;20916;-52
2021/09/30 03:44:53;;;;;;;3.60;1.73;;;10.90;99.90;;;;;;4991733;28;20516;-52
2021/09/30 03:47:21;;;;;;;3.40;2.07;;;11.30;99.90;;;;;;4991594;28;20420;-53
2021/09/30 03:49:54;;;;;;;4.43;1.90;;;10.90;99.90;;;;;;4991226;28;20453;-52
2021/09/30 03:52:31;;;;;;;5.20;1.67;;;11.50;99.90;;;;;;4991463;28;20459;-52
2021/09/30 03:55:17;;;;;;;5.50;2.00;;;11.30;99.90;;;;;;4992932;28;20802;-52
2021/09/30 03:59:05;;;;;;;5.00;2.23;;;11.30;99.90;;;;;;4990956;28;20466;-52
2021/09/30 04:00:35;;;;;;;4.30;2.17;;;11.50;99.90;;;;;;4991198;28;20468;-53
2021/09/30 04:03:03;;;;;;;5.77;2.23;;;11.30;99.90;;;;;;4991453;28;20433;-52
2021/09/30 04:05:33;;;;;;;5.10;2.17;;;11.60;99.90;;;;;;4991222;28;20458;-51
2021/09/30 04:08:01;;;;;;;3.20;2.10;;;11.20;99.90;;;;;;4993165;28;20473;-51
2021/09/30 04:10:28;;;;;;;5.13;2.37;;;11.30;99.90;;;;;;4991946;28;20433;-52
2021/09/30 04:12:55;;;;;;;6.97;2.30;;;11.40;99.90;;;;;;4991249;28;20451;-52
2021/09/30 04:15:22;;;;;;;3.67;2.10;;;11.30;99.90;;;;;;4991083;28;20459;-52
2021/09/30 04:17:49;;;;;;;3.10;1.83;;;11.50;99.90;;;;;;4990200;28;20475;-52
2021/09/30 04:20:17;;;;;;;3.13;1.90;;;11.30;99.90;;;;;;4991102;28;20556;-52
2021/09/30 04:22:44;;;;;;;6.30;2.27;;;11.20;99.90;;;;;;4991126;28;20451;-52
2021/09/30 04:25:13;;;;;;;5.73;2.40;;;11.40;99.90;;;;;;4990911;28;20810;-52
2021/09/30 04:27:40;;;;;;;3.70;2.37;;;11.20;99.90;;;;;;4990354;28;20441;-52
2021/09/30 04:30:09;;;;;;;7.17;2.27;;;11.30;99.90;;;;;;4990568;28;20424;-51
2021/09/30 04:32:50;;;;;;;2.50;1.77;;;11.20;99.90;;;;;;4990764;28;20477;-52
2021/09/30 04:35:17;;;;;;;7.10;3.10;;;11.30;99.90;;;;;;4990711;28;20458;-58
2021/09/30 04:37:44;;;;;;;3.30;2.07;;;11.50;99.90;;;;;;4990267;28;20504;-51
2021/09/30 04:40:14;;;;;;;2.70;2.17;;;10.90;99.90;;;;;;4990536;28;20482;-51
2021/09/30 04:42:40;;;;;;;2.97;2.67;;;11.40;99.90;;;;;;4992184;28;20994;-51
2021/09/30 04:45:08;;;;;;;5.90;3.00;;;11.20;99.90;;;;;;4992029;28;20442;-51
2021/09/30 04:47:35;;;;;;;8.33;2.30;;;11.30;99.90;;;;;;4990407;28;20462;-50
2021/09/30 04:50:12;;;;;;;7.10;3.33;;;11.20;99.90;;;;;;4990617;28;20480;-51
2021/09/30 04:52:39;;;;;;;6.90;2.30;;;11.20;99.90;;;;;;4990899;28;20850;-50
2021/09/30 04:55:06;;;;;;;6.30;3.00;;;11.20;99.90;;;;;;4990738;28;21001;-50
2021/09/30 04:57:34;;;;;;;4.10;3.37;;;11.30;99.90;;;;;;4991358;28;20908;-51
2021/09/30 05:00:01;;;;;;;3.60;2.30;;;11.50;99.90;;;;;;4990406;28;20529;-53
2021/09/30 05:02:47;;;;;;;6.70;2.10;;;10.80;99.90;;;;;;4990695;28;20449;-51
2021/09/30 05:05:14;;;;;;;3.63;2.00;;;11.30;99.90;;;;;;4989970;28;20845;-52
2021/09/30 05:07:40;;;;;;;5.60;2.37;;;11.20;99.90;;;;;;4990082;28;20425;-51
2021/09/30 05:10:11;;;;;;;3.30;2.30;;;11.30;99.90;;;;;;4990509;28;20440;-52
2021/09/30 05:12:41;;;;;;;5.10;2.87;;;11.30;99.90;;;;;;4991527;28;20541;-52
2021/09/30 05:15:09;;;;;;;12.03;3.00;;;11.30;99.90;;;;;;4991571;28;20432;-54
2021/09/30 05:17:36;;;;;;;5.63;2.83;;;11.40;99.90;;;;;;4989855;28;20449;-51
2021/09/30 05:20:04;;;;;;;3.90;2.10;;;11.80;99.90;;;;;;4991189;28;20573;-52
2021/09/30 05:22:31;;;;;;;3.30;2.40;;;11.60;99.90;;;;;;4990040;28;20428;-52
2021/09/30 05:24:57;;;;;;;4.33;2.77;;;11.50;99.90;;;;;;4990934;28;20895;-54
2021/09/30 05:27:24;;;;;;;7.10;4.30;;;11.70;99.90;;;;;;4992061;28;20933;-52
2021/09/30 05:29:54;;;;;;;8.20;2.30;;;11.80;99.90;;;;;;4989690;28;20449;-51
2021/09/30 05:32:22;;;;;;;3.80;2.00;;;12.00;99.90;;;;;;4989649;28;20510;-52
2021/09/30 05:34:51;;;;;;;5.67;2.67;;;12.50;99.90;;;;;;4991225;28;20449;-54
2021/09/30 05:37:19;;;;;;;9.87;3.10;;;12.10;99.90;;;;;;4991042;28;20503;-52
2021/09/30 05:39:46;;;;;;;3.40;2.20;;;12.20;99.90;;;;;;4991381;28;20548;-52
2021/09/30 05:42:13;;;;;;;6.07;2.00;;;12.30;99.90;;;;;;4991960;28;20488;-51
2021/09/30 05:44:40;;;;;;;7.10;2.30;;;12.30;99.90;;;;;;4992845;28;20969;-52
2021/09/30 05:47:09;;;;;;;3.83;1.60;;;12.30;99.90;;;;;;4993526;28;20472;-53
2021/09/30 05:49:36;;;;;;;4.20;2.20;;;12.60;99.90;;;;;;4992807;28;20524;-53
2021/09/30 05:52:22;;;;;;;5.50;3.50;;;12.10;99.90;;;;;;4994988;28;20951;-51
2021/09/30 05:55:21;;;;;;;5.60;1.80;;;12.40;99.90;;;;;;5004461;28;20418;-51
2021/09/30 05:57:48;;;;;;;7.97;2.80;;;12.40;99.90;;;;;;4994943;28;20774;-52
2021/09/30 06:00:22;;;;;;;4.60;2.00;;;12.50;99.90;;;;;;4993675;28;20834;-51
2021/09/30 06:11:21;;;;;;;6.93;1.77;;;12.50;99.90;;;;;;4993604;28;20444;-52
2021/09/30 06:13:52;;;;;;;6.53;2.20;;;12.50;99.90;;;;;;4994579;28;20435;-51
2021/09/30 06:16:21;;;;;;;5.93;1.83;;;12.60;99.90;;;;;;4993234;28;20809;-53
2021/09/30 06:18:50;;;;;;;5.23;2.10;;;12.50;99.90;;;;;;4992529;28;20477;-51
2021/09/30 06:21:27;;;;;;;4.27;2.60;;;12.50;99.90;;;;;;4992536;28;20531;-52
2021/09/30 06:23:54;;;;;;;4.83;2.50;;;12.60;99.90;;;;;;4993001;28;20431;-52
2021/09/30 06:26:22;;;;;;;2.60;2.17;;;12.50;99.90;;;;;;4992921;28;20451;-50
2021/09/30 06:29:08;;;;;;;4.83;2.30;;;12.50;99.90;;;;;;4992380;28;20472;-52
2021/09/30 06:31:34;;;;;;;3.57;2.53;;;13.10;99.90;;;;;;4993895;28;20898;-52
2021/09/30 06:34:14;;;;;;;6.00;2.40;;;12.70;99.90;;;;;;4993969;28;20446;-52
2021/09/30 06:36:52;;;;;;;9.17;2.00;;;12.30;99.90;;;;;;4992928;28;20564;-52
2021/09/30 06:39:21;;;;;;;8.30;2.20;;;12.50;99.90;;;;;;4992037;28;20478;-53
2021/09/30 06:41:47;;;;;;;7.80;2.20;;;12.60;99.90;;;;;;4992902;28;20464;-52
2021/09/30 06:44:33;;;;;;;7.33;1.70;;;12.60;99.90;;;;;;4995152;28;20567;-52
2021/09/30 06:47:18;;;;;;;3.30;1.80;;;12.30;99.90;;;;;;4994299;28;20430;-51
2021/09/30 06:49:47;;;;;;;4.10;2.07;;;12.70;99.90;;;;;;4992747;28;20900;-53
2021/09/30 06:52:32;;;;;;;4.60;2.20;;;12.70;99.90;;;;;;4994002;28;20443;-51
2021/09/30 06:55:11;;;;;;;3.73;1.50;;;12.70;99.90;;;;;;4992106;28;20501;-52
2021/09/30 07:01:09;;;;;;;6.97;2.10;;;12.80;99.90;;;;;;4949979;29;20503;-52
2021/09/30 07:04:05;;;;;;;5.77;1.87;;;12.80;99.90;;;;;;4953775;29;20461;-52
2021/09/30 07:06:42;;;;;;;4.57;1.90;;;13.00;99.90;;;;;;4937281;29;20461;-52
2021/09/30 07:09:08;;;;;;;3.50;2.10;;;13.00;99.90;;;;;;4941403;29;20566;-52
2021/09/30 07:11:35;;;;;;;3.87;2.00;;;13.30;99.90;;;;;;4936666;29;20988;-52
2021/09/30 07:14:02;;;;;;;2.20;1.50;;;13.20;99.90;;;;;;4953803;29;20532;-52
2021/09/30 07:16:29;;;;;;;5.00;2.17;;;13.20;99.90;;;;;;4954060;29;20442;-52
2021/09/30 07:18:56;;;;;;;5.07;1.80;;;13.10;99.90;;;;;;4953490;29;20454;-51
2021/09/30 07:21:22;;;;;;;6.93;2.00;;;13.10;99.90;;;;;;4953540;29;20485;-53
2021/09/30 07:23:50;;;;;;;9.37;2.20;;;13.40;99.90;;;;;;4953523;29;20453;-52
2021/09/30 07:26:18;;;;;;;6.53;2.17;;;13.10;99.90;;;;;;4953872;29;20445;-52
2021/09/30 07:28:44;;;;;;;4.03;2.70;;;13.50;99.90;;;;;;4952861;29;20458;-53
2021/09/30 07:31:11;;;;;;;2.90;1.90;;;13.00;99.90;;;;;;4953662;29;20434;-54
2021/09/30 07:33:38;;;;;;;4.90;2.53;;;13.30;99.90;;;;;;4953203;29;20800;-52
2021/09/30 07:36:05;;;;;;;6.03;2.20;;;12.80;99.90;;;;;;4953474;29;20447;-51
2021/09/30 07:38:31;;;;;;;4.53;2.10;;;13.20;99.90;;;;;;4953374;29;20432;-52
2021/09/30 07:40:59;;;;;;;5.53;2.10;;;13.20;99.90;;;;;;4954049;29;20502;-51
2021/09/30 07:43:26;;;;;;;3.97;2.30;;;12.80;99.90;;;;;;4953229;29;20931;-51
2021/09/30 07:45:53;;;;;;;4.47;2.00;;;13.10;99.90;;;;;;4953352;29;20485;-52
2021/09/30 07:48:21;;;;;;;7.00;2.17;;;13.60;99.90;;;;;;4953221;29;20492;-52
2021/09/30 07:50:48;;;;;;;5.30;2.03;;;13.30;99.90;;;;;;4953689;29;20473;-52
2021/09/30 07:53:15;;;;;;;4.77;2.17;;;13.80;99.90;;;;;;4953719;29;20765;-52
2021/09/30 07:55:42;;;;;;;8.10;2.07;;;13.40;99.90;;;;;;4953461;29;20448;-52
2021/09/30 07:58:10;;;;;;;5.07;2.33;;;13.50;99.90;;;;;;4953114;29;20441;-53
2021/09/30 08:00:38;;;;;;;5.57;2.30;;;13.50;99.90;;;;;;4936018;29;20498;-51
2021/09/30 08:03:05;;;;;;;5.70;1.97;;;13.60;99.90;;;;;;4953850;29;20828;-52
2021/09/30 08:05:35;;;;;;;7.33;2.50;;;13.60;99.90;;;;;;4953095;28;20476;-52
2021/09/30 08:08:02;;;;;;;4.10;2.20;;;13.70;99.90;;;;;;4953045;29;20953;-52
2021/09/30 08:10:29;;;;;;;6.33;2.80;;;13.80;99.90;;;;;;4953316;29;20464;-52
2021/09/30 08:12:56;;;;;;;4.50;2.20;;;14.00;99.90;;;;;;4953376;29;20412;-52
2021/09/30 08:15:24;;;;;;;8.27;2.60;;;13.80;99.90;;;;;;4953514;29;20938;-52
2021/09/30 08:17:51;;;;;;;7.10;2.50;;;13.90;99.90;;;;;;4952993;29;20875;-53
2021/09/30 08:20:19;;;;;;;3.80;2.33;;;13.90;99.90;;;;;;4953464;29;20949;-52
2021/09/30 08:22:46;;;;;;;3.20;2.37;;;14.10;99.90;;;;;;4953227;29;20948;-52
2021/09/30 08:25:13;;;;;;;4.93;2.33;;;14.30;99.90;;;;;;4953066;29;20431;-52
2021/09/30 08:27:40;;;;;;;5.73;2.50;;;14.50;99.90;;;;;;4952936;29;20442;-53
2021/09/30 08:30:08;;;;;;;9.23;3.10;;;14.30;99.90;;;;;;4953144;29;20458;-52
2021/09/30 08:32:36;;;;;;;8.30;2.53;;;14.40;99.90;;;;;;4953331;29;20424;-52
2021/09/30 08:35:03;;;;;;;8.20;2.37;;;14.80;99.90;;;;;;4952796;29;20457;-53
2021/09/30 08:37:30;;;;;;;3.77;2.00;;;14.60;99.90;;;;;;4952911;29;20456;-53
2021/09/30 08:39:57;;;;;;;4.20;1.90;;;14.60;99.90;;;;;;4952633;29;20853;-52
2021/09/30 08:42:23;;;;;;;10.77;2.33;;;14.70;99.90;;;;;;4953053;29;20808;-53
2021/09/30 08:44:52;;;;;;;5.53;2.60;;;14.70;99.90;;;;;;4953143;29;20439;-53
2021/09/30 08:47:20;;;;;;;3.40;1.93;;;14.80;99.90;;;;;;4952647;29;20889;-52
2021/09/30 08:49:48;;;;;;;6.90;2.47;;;15.00;99.90;;;;;;4952073;29;20498;-52
2021/09/30 08:52:15;;;;;;;7.80;2.70;;;15.20;99.90;;;;;;4952753;29;20445;-52
2021/09/30 08:54:41;;;;;;;7.87;2.07;;;15.00;99.90;;;;;;4952891;29;20444;-52
2021/09/30 08:57:08;;;;;;;4.77;2.33;;;14.90;99.90;;;;;;4952650;29;20467;-53
2021/09/30 08:59:36;;;;;;;9.20;2.87;;;14.90;99.90;;;;;;4952851;29;20474;-53
2021/09/30 09:02:07;;;;;;;5.87;1.40;;;15.00;99.90;;;;;;4953029;29;20568;-52
2021/09/30 09:04:34;;;;;;;5.67;2.03;;;15.00;99.90;;;;;;4952947;29;20783;-53
2021/09/30 09:07:09;;;;;;;3.33;2.03;;;15.00;99.90;;;;;;4952743;29;20539;-52
2021/09/30 09:09:36;;;;;;;7.67;2.07;;;14.80;99.90;;;;;;4952496;29;20456;-54
2021/09/30 09:12:06;;;;;;;4.60;1.60;;;15.00;99.90;;;;;;4953158;29;20438;-54
2021/09/30 09:14:35;;;;;;;10.00;2.33;;;15.40;99.90;;;;;;4953112;29;20805;-53
2021/09/30 09:17:04;;;;;;;3.90;2.00;;;15.10;99.90;;;;;;4953039;28;20933;-53
2021/09/30 09:19:34;;;;;;;3.50;1.90;;;15.40;99.90;;;;;;4955857;29;20458;-53
2021/09/30 09:22:10;;;;;;;3.47;1.60;;;15.10;99.90;;;;;;4956266;29;20494;-53
2021/09/30 09:24:54;;;;;;;4.13;2.50;;;15.10;99.90;;;;;;4956364;29;20417;-53
2021/09/30 09:27:21;;;;;;;4.20;1.70;;;15.30;99.90;;;;;;4956286;29;20448;-52
2021/09/30 09:29:47;;;;;;;4.30;1.77;;;15.00;99.90;;;;;;4955847;29;20470;-52
2021/09/30 09:32:14;;;;;;;3.43;1.97;;;15.00;99.90;;;;;;4955689;29;20450;-53
2021/09/30 09:34:41;;;;;;;11.27;2.13;;;14.90;99.90;;;;;;4955718;29;20924;-53
2021/09/30 09:37:23;;;;;;;2.03;1.63;;;14.80;99.90;;;;;;4956160;29;20478;-52
2021/09/30 09:39:51;;;;;;;5.40;1.67;;;14.40;99.90;;;;;;4955901;29;20440;-53
2021/09/30 09:42:20;;;;;;;9.13;1.80;;;14.80;99.90;;;;;;4955286;29;20971;-53
2021/09/30 09:44:55;;;;;;;5.47;1.70;;;14.60;99.90;;;;;;4955920;29;20505;-53
2021/09/30 09:47:23;;;;;;;4.40;1.80;;;14.70;99.90;;;;;;4955688;29;20450;-53
2021/09/30 09:50:09;;;;;;;5.70;2.33;;;14.60;99.90;;;;;;4955999;29;20454;-53
2021/09/30 09:52:43;;;;;;;3.23;1.80;;;14.60;99.90;;;;;;4955617;29;20442;-53
2021/09/30 09:55:14;;;;;;;5.20;2.40;;;14.60;99.90;;;;;;4956080;29;20431;-52
2021/09/30 09:57:41;;;;;;;6.93;2.20;;;14.60;99.90;;;;;;4954998;29;20423;-53
2021/09/30 10:00:12;;;;;;;4.70;1.87;;;14.60;99.90;;;;;;4955499;29;20467;-53
2021/09/30 10:02:40;;;;;;;17.10;12.90;;;14.60;99.90;;;;;;4955254;29;20503;-52
2021/09/30 10:05:07;;;;;;;8.70;5.20;;;14.70;99.90;;;;;;4955721;29;20439;-53
2021/09/30 10:07:34;;;;;;;6.13;2.70;;;14.80;99.90;;;;;;4955348;29;20443;-53
2021/09/30 10:10:01;;;;;;;3.73;1.70;;;15.30;99.90;;;;;;4955362;29;20465;-53
2021/09/30 10:12:29;;;;;;;2.93;1.70;;;15.00;99.90;;;;;;4955274;29;20434;-53
2021/09/30 10:14:57;;;;;;;5.03;2.10;;;15.20;99.90;;;;;;4955474;29;20417;-53
2021/09/30 10:17:24;;;;;;;5.93;2.10;;;15.30;99.90;;;;;;4955406;29;20445;-53
2021/09/30 10:19:50;;;;;;;6.00;2.53;;;15.70;99.90;;;;;;4954940;29;20430;-53
2021/09/30 10:22:17;;;;;;;5.77;1.97;;;15.20;99.90;;;;;;4955298;29;20507;-53
2021/09/30 10:24:44;;;;;;;4.63;1.83;;;15.70;99.90;;;;;;4955826;29;20443;-52
2021/09/30 10:27:13;;;;;;;4.60;1.70;;;15.90;99.90;;;;;;4955207;29;20445;-53
2021/09/30 10:29:45;;;;;;;5.33;2.50;;;16.00;99.90;;;;;;4954727;28;20460;-54
2021/09/30 10:32:13;;;;;;;9.97;2.43;;;16.10;99.90;;;;;;4955222;29;20494;-54
2021/09/30 10:34:43;;;;;;;4.30;2.13;;;16.20;99.80;;;;;;4954951;29;20494;-54
2021/09/30 10:37:19;;;;;;;2.50;1.50;;;16.40;99.60;;;;;;4937193;29;20559;-54
2021/09/30 10:40:06;;;;;;;6.90;1.90;;;16.50;99.30;;;;;;4954735;29;20455;-53
2021/09/30 10:42:47;;;;;;;3.30;1.80;;;16.60;99.00;;;;;;4955919;29;20514;-53
2021/09/30 10:45:17;;;;;;;6.60;2.00;;;16.70;98.70;;;;;;4937906;29;20559;-53
2021/09/30 10:47:44;;;;;;;7.50;2.60;;;16.80;98.70;;;;;;4954862;29;20443;-52
2021/09/30 10:50:11;;;;;;;6.70;2.00;;;16.90;98.40;;;;;;4954642;29;20462;-53
2021/09/30 10:52:51;;;;;;;9.53;2.60;;;17.00;98.20;;;;;;4954846;29;20953;-53
2021/09/30 10:55:33;;;;;;;6.37;1.67;;;17.10;97.90;;;;;;4955003;29;20437;-53
2021/09/30 10:58:02;;;;;;;5.13;2.30;;;17.20;97.80;;;;;;4937199;29;20903;-53
2021/09/30 11:00:52;;;;;;;3.67;1.77;;;17.30;97.50;;;;;;4954189;29;20993;-54
2021/09/30 11:03:26;;;;;;;3.83;1.77;;;17.40;97.40;;;;;;4954314;29;20436;-53
2021/09/30 11:06:16;;;;;;;4.40;2.00;;;17.40;97.20;;;;;;4954446;29;20437;-53
2021/09/30 11:08:47;;;;;;;9.20;2.53;;;17.50;96.70;;;;;;4953980;29;21026;-53
2021/09/30 11:11:16;;;;;;;3.43;2.60;;;17.60;97.00;;;;;;4954356;29;20437;-53
2021/09/30 11:13:46;;;;;;;4.07;1.63;;;17.70;96.90;;;;;;4954360;29;20450;-54
2021/09/30 11:16:16;;;;;;;4.80;2.17;;;17.80;96.60;;;;;;4954048;29;20441;-53
2021/09/30 11:18:50;;;;;;;4.10;1.40;;;17.80;96.10;;;;;;4936195;29;20490;-54
2021/09/30 11:21:57;;;;;;;4.97;1.50;;;17.80;95.80;;;;;;4954059;29;20524;-53
2021/09/30 11:24:29;;;;;;;4.90;1.87;;;17.90;95.20;;;;;;4953721;29;20440;-52
2021/09/30 11:27:21;;;;;;;7.07;2.20;;;17.90;95.40;;;;;;4954242;29;20453;-52
2021/09/30 11:29:50;;;;;;;2.80;1.30;;;17.80;94.70;;;;;;4953255;29;20553;-52
2021/09/30 11:32:25;;;;;;;6.73;2.40;;;17.80;95.10;;;;;;4953955;29;20533;-52
2021/09/30 11:34:53;;;;;;;4.10;1.80;;;17.70;95.00;;;;;;4954233;29;20436;-53
2021/09/30 11:37:25;;;;;;;4.27;2.00;;;17.70;95.10;;;;;;4953711;29;20973;-53
2021/09/30 11:39:54;;;;;;;4.00;2.03;;;17.70;95.00;;;;;;4952716;28;20461;-53
2021/09/30 11:42:23;;;;;;;6.30;2.10;;;17.70;95.20;;;;;;4953448;29;20459;-54
2021/09/30 11:45:00;;;;;;;5.13;1.70;;;18.00;95.20;;;;;;4954175;29;20451;-53
2021/09/30 11:47:29;;;;;;;7.60;1.87;;;17.60;95.00;;;;;;4954079;29;20463;-52
2021/09/30 11:49:57;;;;;;;3.37;1.90;;;17.20;95.00;;;;;;4953622;29;20556;-52
2021/09/30 11:52:24;;;;;;;5.70;2.33;;;17.50;95.30;;;;;;4953035;29;20570;-53
2021/09/30 11:54:51;;;;;;;7.33;2.20;;;17.50;95.20;;;;;;4953897;29;20442;-53
2021/09/30 11:57:19;;;;;;;6.40;2.50;;;17.20;95.00;;;;;;4954080;29;20449;-52
2021/09/30 11:59:46;;;;;;;6.60;1.80;;;17.40;95.30;;;;;;4952729;29;20507;-52
2021/09/30 12:02:14;;;;;;;4.30;1.70;;;17.40;95.40;;;;;;4953560;29;20489;-53
2021/09/30 12:04:43;;;;;;;4.30;1.83;;;17.50;95.30;;;;;;4953889;29;20441;-53
2021/09/30 12:07:18;;;;;;;4.43;2.00;;;17.30;95.20;;;;;;4953414;29;20533;-53
2021/09/30 12:09:46;;;;;;;5.73;1.50;;;17.30;95.10;;;;;;4952799;29;20426;-52
2021/09/30 12:12:13;;;;;;;8.70;2.10;;;17.20;95.20;;;;;;4953289;29;20537;-52
2021/09/30 12:14:42;;;;;;;7.70;2.20;;;17.20;95.30;;;;;;4954023;29;20791;-53
2021/09/30 12:17:12;;;;;;;4.20;1.40;;;17.30;95.30;;;;;;4953329;29;20440;-53
2021/09/30 12:19:44;;;;;;;4.87;1.50;;;17.30;95.40;;;;;;4952794;29;20455;-53
2021/09/30 12:22:13;;;;;;;3.40;1.67;;;17.40;95.30;;;;;;4953020;29;21005;-52
2021/09/30 12:24:45;;;;;;;8.63;2.07;;;17.50;95.40;;;;;;4952983;29;20445;-52
2021/09/30 12:27:12;;;;;;;3.70;1.80;;;17.60;95.20;;;;;;4953287;29;20446;-53
2021/09/30 12:29:41;;;;;;;3.70;2.00;;;17.60;95.20;;;;;;4952441;29;20454;-53
2021/09/30 12:32:10;;;;;;;7.00;2.00;;;17.70;95.10;;;;;;4953080;29;20441;-52
2021/09/30 12:34:37;;;;;;;4.37;1.60;;;17.80;94.70;;;;;;4952681;29;20442;-56
2021/09/30 12:37:06;;;;;;;9.60;2.20;;;18.00;94.80;;;;;;4935632;29;20460;-52
2021/09/30 12:39:33;;;;;;;3.60;1.50;;;18.10;94.60;;;;;;4952727;29;20473;-53
2021/09/30 12:42:15;;;;;;;3.90;2.40;;;18.20;94.30;;;;;;4953043;29;21067;-53
2021/09/30 12:44:47;;;;;;;5.37;1.90;;;18.30;94.00;;;;;;4935468;29;20813;-53
2021/09/30 12:47:32;;;;;;;7.20;2.10;;;18.30;94.00;;;;;;4935219;29;20462;-53
2021/09/30 12:50:01;;;;;;;7.30;2.43;;;18.40;93.30;;;;;;4952519;29;20468;-53
2021/09/30 12:52:29;;;;;;;9.57;2.70;;;18.30;93.30;;;;;;4955195;28;20942;-53
2021/09/30 12:54:55;;;;;;;6.37;2.27;;;18.40;93.10;;;;;;4956563;29;20533;-53
2021/09/30 12:57:22;;;;;;;9.97;5.03;;;18.30;92.90;;;;;;4956612;29;20935;-53
2021/09/30 13:00:06;;;;;;;5.93;1.90;;;18.30;92.90;;;;;;5012732;23;20503;-51
2021/09/30 13:02:33;;;;;;;9.17;2.80;;;18.10;92.30;;;;;;5015154;28;20668;-53
2021/09/30 13:05:00;;;;;;;5.00;1.90;;;18.20;92.50;;;;;;5015098;28;20453;-52
2021/09/30 13:07:41;;;;;;;10.70;2.40;;;18.10;92.60;;;;;;5015316;28;20522;-51
2021/09/30 13:10:10;;;;;;;3.50;1.73;;;18.10;92.40;;;;;;5014956;28;20933;-52
2021/09/30 13:12:37;;;;;;;7.33;1.80;;;18.10;92.50;;;;;;5014749;28;20959;-51
2021/09/30 13:15:05;;;;;;;7.00;2.03;;;18.20;92.50;;;;;;5015000;28;20437;-50
2021/09/30 13:17:31;;;;;;;4.93;2.10;;;18.00;92.60;;;;;;5014517;28;20545;-50
2021/09/30 13:19:59;;;;;;;3.90;1.70;;;18.10;92.60;;;;;;5014596;28;20466;-51
2021/09/30 13:22:33;;;;;;;6.10;2.20;;;18.10;92.10;;;;;;5014727;28;20974;-50
2021/09/30 13:25:02;;;;;;;5.70;2.23;;;18.00;90.90;;;;;;5014308;28;20439;-52
2021/09/30 13:27:34;;;;;;;4.93;2.20;;;18.10;91.20;;;;;;5014472;28;20435;-50
2021/09/30 13:30:01;;;;;;;5.23;1.80;;;18.10;90.80;;;;;;5013643;28;20468;-51
2021/09/30 13:32:28;;;;;;;2.73;1.60;;;18.00;90.80;;;;;;5013456;28;20467;-51
2021/09/30 13:34:55;;;;;;;6.93;4.63;;;17.90;90.70;;;;;;5014717;28;20442;-52
2021/09/30 13:37:22;;;;;;;5.63;2.33;;;18.00;90.50;;;;;;5014732;28;20450;-53
2021/09/30 13:39:50;;;;;;;6.17;1.97;;;18.00;90.50;;;;;;5013832;28;20497;-52
2021/09/30 13:42:17;;;;;;;3.67;2.10;;;18.10;90.60;;;;;;5014673;28;20483;-51
2021/09/30 13:44:45;;;;;;;4.57;1.70;;;18.10;90.60;;;;;;5014500;28;20432;-51
2021/09/30 13:47:11;;;;;;;5.30;2.30;;;18.10;90.40;;;;;;5014009;28;20758;-51
2021/09/30 13:49:38;;;;;;;8.33;2.00;;;18.10;90.30;;;;;;5013402;28;20463;-50
2021/09/30 13:52:05;;;;;;;9.07;1.70;;;18.10;90.30;;;;;;5014374;28;20550;-52
2021/09/30 13:54:32;;;;;;;3.83;1.53;;;18.10;90.10;;;;;;5014497;28;20798;-52
2021/09/30 13:56:59;;;;;;;5.93;1.80;;;18.00;90.10;;;;;;5014399;28;20458;-52
2021/09/30 13:59:25;;;;;;;6.07;1.90;;;18.10;90.10;;;;;;5013463;28;20474;-52
2021/09/30 14:01:53;;;;;;;5.37;1.90;;;18.10;90.00;;;;;;5013529;28;20502;-51
2021/09/30 14:04:20;;;;;;;7.03;2.40;;;18.00;89.90;;;;;;5012652;28;20793;-52
2021/09/30 14:06:48;;;;;;;4.77;1.63;;;18.00;90.00;;;;;;5013933;28;20451;-53
2021/09/30 14:09:16;;;;;;;3.30;1.53;;;17.90;90.10;;;;;;5013391;28;20467;-50
2021/09/30 14:11:43;;;;;;;5.83;1.80;;;17.80;90.10;;;;;;5013521;28;20887;-50
2021/09/30 14:14:09;;;;;;;7.77;2.70;;;17.70;90.10;;;;;;5013568;28;20956;-51
2021/09/30 14:16:36;;;;;;;4.27;1.63;;;17.70;90.20;;;;;;5013799;28;20485;-52
2021/09/30 14:19:05;;;;;;;3.37;1.77;;;17.60;90.00;;;;;;5013124;28;20462;-52
2021/09/30 14:21:31;;;;;;;6.50;2.57;;;17.50;89.80;;;;;;5013894;28;20872;-50
2021/09/30 14:23:58;;;;;;;5.67;1.77;;;17.50;90.00;;;;;;5013752;28;20601;-51
2021/09/30 14:26:25;;;;;;;4.43;1.47;;;17.50;89.90;;;;;;5013190;28;20443;-50
2021/09/30 14:28:52;;;;;;;3.20;1.63;;;17.40;89.60;;;;;;5013451;28;20960;-51
2021/09/30 14:31:18;;;;;;;9.67;7.63;;;17.40;89.80;;;;;;5013077;28;20521;-51
2021/09/30 14:33:45;;;;;;;5.27;2.80;;;17.40;88.60;;;;;;5013880;28;20437;-53
2021/09/30 14:36:13;;;;;;;4.47;2.13;;;17.40;87.40;;;;;;5013923;28;20434;-53
2021/09/30 14:38:40;;;;;;;3.23;1.67;;;17.40;87.20;;;;;;5013465;28;20439;-52
2021/09/30 14:41:07;;;;;;;6.13;1.80;;;17.30;87.40;;;;;;5013218;28;20527;-52
2021/09/30 14:43:36;;;;;;;5.73;1.60;;;17.30;87.20;;;;;;5013217;28;20503;-50
2021/09/30 14:46:03;;;;;;;3.93;1.97;;;17.30;87.30;;;;;;5012909;28;20533;-52
2021/09/30 14:48:30;;;;;;;5.63;1.50;;;17.20;87.30;;;;;;5012630;28;20478;-51
2021/09/30 14:50:57;;;;;;;4.70;1.70;;;17.20;87.40;;;;;;5013474;28;20453;-51
2021/09/30 14:53:25;;;;;;;10.00;2.50;;;17.10;87.30;;;;;;5013041;28;20796;-51
2021/09/30 14:55:52;;;;;;;6.83;2.00;;;17.10;87.70;;;;;;5011319;28;20499;-51
2021/09/30 14:58:18;;;;;;;4.97;1.30;;;17.10;88.10;;;;;;5012487;28;20433;-51
2021/09/30 15:00:45;;;;;;;2.90;1.67;;;17.10;88.60;;;;;;5012091;28;20483;-53
2021/09/30 15:03:12;;;;;;;3.90;2.07;;;17.00;88.90;;;;;;5012485;28;20477;-52
2021/09/30 15:05:39;;;;;;;7.10;1.80;;;17.00;88.80;;;;;;5012571;28;20528;-51
2021/09/30 15:08:06;;;;;;;4.43;2.00;;;17.00;89.10;;;;;;5012465;28;20926;-54
2021/09/30 15:10:34;;;;;;;5.67;2.23;;;17.00;89.60;;;;;;5013254;28;20963;-52
2021/09/30 15:13:01;;;;;;;7.63;2.77;;;17.00;89.70;;;;;;5012491;28;20948;-52
2021/09/30 15:15:28;;;;;;;4.87;1.60;;;17.00;89.90;;;;;;5012552;28;20430;-54
2021/09/30 15:17:59;;;;;;;7.53;3.77;;;17.00;90.00;;;;;;5012288;28;20825;-53
2021/09/30 15:23:13;;;;;;;4.47;1.57;;;17.00;90.20;;;;;;5012967;28;20496;-52
2021/09/30 15:25:42;;;;;;;3.97;1.50;;;17.00;90.10;;;;;;5012259;28;20480;-51
2021/09/30 15:28:11;;;;;;;8.47;3.40;;;16.90;90.20;;;;;;5011957;28;20529;-50
2021/09/30 15:30:40;;;;;;;5.20;2.47;;;16.90;90.20;;;;;;5011839;28;20546;-52